Terminal Aerodrome Forecast
Issued by NWS

Current Version | Previous Version | Text Only | Print | Product List | Glossary On
Versions: 1 2 3 4 5 6 7 8 9 10 11 12 13 14 15
000
FTUS44 KTSA 231320 AAA
TAFMLC
TAF AMD
KMLC 231320Z 2313/2412 33005KT P6SM SCT035
      TEMPO 2313/2317 BKN015
     FM231700 34008KT P6SM OVC025
     FM231800 34012KT P6SM VCSH OVC050
     FM240100 VRB03KT P6SM BKN250=

USA.gov is the U.S. government's official web portal to all federal, state and local government web resources and services.